Blake Denton — WDC7496 — position and weather

sailwx.info

Track history (hours):
 
Tides and Currents Weather Stations Pressure Air Temp Water Temp Dewpoint Dewpoint Depression Visibility Wind Speed Wind Dir Waves Ship Positions

Blake Denton

Owner: Marquette Transportation, Paducah, KY. More information available from US FCC via Universal Licensing System and Coast Guard Vessel Documentation Center.

Last reported at 2015-Apr-27 12:23 UTC. Time now 2015-Apr-27 18:37 UTC.
Position N 29°59' W 090°49'.

Length 52 m; draft 3.4 m.

Type: Towing. MMSI: 367072210.

Date/timePositionNaut miles runAvg speedWind from/ knotsBaromVisibWave heightAir tempDewpointWater temp
2015-Apr-27 12:23N 29°59' W 090°49'5 4.9
2015-Apr-27 11:16N 30°04' W 090°51'0 0.0
2015-Apr-27 10:28N 30°04' W 090°51'0 0.0
2015-Apr-27 09:31N 30°04' W 090°51'9 1.3
2015-Apr-27 02:23N 30°08' W 091°01'0 0.0
2015-Apr-27 01:33N 30°08' W 091°01'8 0.8
2015-Apr-26 15:33N 30°15' W 091°07'7 6.9
2015-Apr-26 14:33N 30°19' W 091°13'2 1.8
2015-Apr-26 13:32N 30°20' W 091°12'4 4.0
2015-Apr-26 12:33N 30°24' W 091°12'0 0.0
2015-Apr-26 11:33N 30°24' W 091°12'0 0.0
2015-Apr-26 10:33N 30°24' W 091°12'0 0.0
2015-Apr-26 09:33N 30°24' W 091°12'0 0.0
2015-Apr-26 08:33N 30°24' W 091°12'0 0.0
2015-Apr-26 07:33N 30°24' W 091°12'0 0.0
2015-Apr-26 06:33N 30°24' W 091°12'6 6.3
2015-Apr-26 05:33N 30°31' W 091°12'4 3.9
2015-Apr-26 04:33N 30°31' W 091°17'4 4.4
2015-Apr-26 03:33N 30°35' W 091°19'10 9.0
2015-Apr-26 02:29N 30°44' W 091°21'44 6.0
2015-Apr-25 19:04N 31°28' W 091°31'  
Track history (hours):
 
Tides and Currents Weather Stations Pressure Air Temp Water Temp Dewpoint Dewpoint Depression Visibility Wind Speed Wind Dir Waves Ship Positions

Blake Denton

Owner: Marquette Transportation, Paducah, KY. More information available from US FCC via Universal Licensing System and Coast Guard Vessel Documentation Center.

Last reported at 2015-Apr-27 12:23 UTC. Time now 2015-Apr-27 18:37 UTC.
Position N 29°59' W 090°49'.

Length 52 m; draft 3.4 m.

Type: Towing. MMSI: 367072210.

Date/timePositionNaut miles runAvg speedWind from/ knotsBaromVisibWave heightAir tempDewpointWater temp
2015-Apr-27 12:23N 29°59' W 090°49'5 4.9
2015-Apr-27 11:16N 30°04' W 090°51'0 0.0
2015-Apr-27 10:28N 30°04' W 090°51'0 0.0
2015-Apr-27 09:31N 30°04' W 090°51'9 1.3
2015-Apr-27 02:23N 30°08' W 091°01'0 0.0
2015-Apr-27 01:33N 30°08' W 091°01'8 0.8
2015-Apr-26 15:33N 30°15' W 091°07'7 6.9
2015-Apr-26 14:33N 30°19' W 091°13'2 1.8
2015-Apr-26 13:32N 30°20' W 091°12'4 4.0
2015-Apr-26 12:33N 30°24' W 091°12'0 0.0
2015-Apr-26 11:33N 30°24' W 091°12'0 0.0
2015-Apr-26 10:33N 30°24' W 091°12'0 0.0
2015-Apr-26 09:33N 30°24' W 091°12'0 0.0
2015-Apr-26 08:33N 30°24' W 091°12'0 0.0
2015-Apr-26 07:33N 30°24' W 091°12'0 0.0
2015-Apr-26 06:33N 30°24' W 091°12'6 6.3
2015-Apr-26 05:33N 30°31' W 091°12'4 3.9
2015-Apr-26 04:33N 30°31' W 091°17'4 4.4
2015-Apr-26 03:33N 30°35' W 091°19'10 9.0
2015-Apr-26 02:29N 30°44' W 091°21'44 6.0
2015-Apr-25 19:04N 31°28' W 091°31'  

Dump ship's entire track history